sensor_id;sensor_type;location;lat;lon;timestamp;P1;durP1;ratioP1;P2;durP2;ratioP2
55423;SDS011;41294;42.666;23.350;2023-09-19T00:00:20;5.57;;;4.40;;
55423;SDS011;41294;42.666;23.350;2023-09-19T00:02:54;4.80;;;4.40;;
55423;SDS011;41294;42.666;23.350;2023-09-19T00:05:24;5.93;;;4.00;;
55423;SDS011;41294;42.666;23.350;2023-09-19T00:07:53;5.63;;;4.40;;
55423;SDS011;41294;42.666;23.350;2023-09-19T00:10:22;6.20;;;4.63;;
55423;SDS011;41294;42.666;23.350;2023-09-19T00:12:50;7.20;;;4.57;;
55423;SDS011;41294;42.666;23.350;2023-09-19T00:15:22;6.13;;;4.43;;
55423;SDS011;41294;42.666;23.350;2023-09-19T00:17:48;5.33;;;4.50;;
55423;SDS011;41294;42.666;23.350;2023-09-19T00:20:14;6.03;;;4.67;;
55423;SDS011;41294;42.666;23.350;2023-09-19T00:22:43;6.73;;;4.63;;
55423;SDS011;41294;42.666;23.350;2023-09-19T00:25:09;6.40;;;4.90;;
55423;SDS011;41294;42.666;23.350;2023-09-19T00:27:38;5.17;;;4.37;;
55423;SDS011;41294;42.666;23.350;2023-09-19T00:30:07;6.07;;;4.73;;
55423;SDS011;41294;42.666;23.350;2023-09-19T00:32:41;4.77;;;4.40;;
55423;SDS011;41294;42.666;23.350;2023-09-19T00:35:08;6.97;;;5.10;;
55423;SDS011;41294;42.666;23.350;2023-09-19T00:37:37;4.80;;;4.33;;
55423;SDS011;41294;42.666;23.350;2023-09-19T00:40:03;6.80;;;4.73;;
55423;SDS011;41294;42.666;23.350;2023-09-19T00:42:48;6.03;;;4.37;;
55423;SDS011;41294;42.666;23.350;2023-09-19T00:45:15;5.87;;;4.80;;
55423;SDS011;41294;42.666;23.350;2023-09-19T00:47:46;5.47;;;4.13;;
55423;SDS011;41294;42.666;23.350;2023-09-19T00:50:20;6.17;;;5.00;;
55423;SDS011;41294;42.666;23.350;2023-09-19T00:52:48;5.83;;;4.60;;
55423;SDS011;41294;42.666;23.350;2023-09-19T00:55:15;6.97;;;4.87;;
55423;SDS011;41294;42.666;23.350;2023-09-19T00:57:44;5.57;;;5.00;;
55423;SDS011;41294;42.666;23.350;2023-09-19T01:00:10;5.47;;;4.60;;
55423;SDS011;41294;42.666;23.350;2023-09-19T01:02:39;4.60;;;4.30;;
55423;SDS011;41294;42.666;23.350;2023-09-19T01:05:09;5.17;;;4.47;;
55423;SDS011;41294;42.666;23.350;2023-09-19T01:07:35;5.33;;;4.83;;
55423;SDS011;41294;42.666;23.350;2023-09-19T01:10:04;7.13;;;4.90;;
55423;SDS011;41294;42.666;23.350;2023-09-19T01:31:54;7.37;;;5.50;;
55423;SDS011;41294;42.666;23.350;2023-09-19T01:34:43;7.10;;;5.70;;
55423;SDS011;41294;42.666;23.350;2023-09-19T01:37:16;6.13;;;5.53;;
55423;SDS011;41294;42.666;23.350;2023-09-19T01:39:48;5.47;;;4.97;;
55423;SDS011;41294;42.666;23.350;2023-09-19T01:42:21;6.43;;;5.70;;
55423;SDS011;41294;42.666;23.350;2023-09-19T01:45:11;6.67;;;6.07;;
55423;SDS011;41294;42.666;23.350;2023-09-19T01:47:51;7.17;;;6.07;;
55423;SDS011;41294;42.666;23.350;2023-09-19T01:50:31;5.50;;;4.90;;
55423;SDS011;41294;42.666;23.350;2023-09-19T01:56:00;6.77;;;5.60;;
55423;SDS011;41294;42.666;23.350;2023-09-19T01:59:05;6.97;;;5.83;;
55423;SDS011;41294;42.666;23.350;2023-09-19T02:01:29;7.50;;;6.40;;
55423;SDS011;41294;42.666;23.350;2023-09-19T02:03:56;5.93;;;5.43;;
55423;SDS011;41294;42.666;23.350;2023-09-19T02:06:21;6.97;;;5.70;;
55423;SDS011;41294;42.666;23.350;2023-09-19T02:08:47;5.83;;;5.20;;
55423;SDS011;41294;42.666;23.350;2023-09-19T02:11:13;5.93;;;5.13;;
55423;SDS011;41294;42.666;23.350;2023-09-19T02:13:39;6.40;;;5.80;;
55423;SDS011;41294;42.666;23.350;2023-09-19T02:16:06;5.97;;;5.47;;
55423;SDS011;41294;42.666;23.350;2023-09-19T02:18:34;6.73;;;5.57;;
55423;SDS011;41294;42.666;23.350;2023-09-19T02:21:00;6.30;;;5.67;;
55423;SDS011;41294;42.666;23.350;2023-09-19T02:23:26;6.03;;;5.47;;
55423;SDS011;41294;42.666;23.350;2023-09-19T02:25:56;5.70;;;5.20;;
55423;SDS011;41294;42.666;23.350;2023-09-19T02:28:31;8.53;;;5.20;;
55423;SDS011;41294;42.666;23.350;2023-09-19T02:30:57;8.20;;;5.50;;
55423;SDS011;41294;42.666;23.350;2023-09-19T02:33:23;6.83;;;5.30;;
55423;SDS011;41294;42.666;23.350;2023-09-19T02:35:49;6.20;;;5.60;;
55423;SDS011;41294;42.666;23.350;2023-09-19T02:38:15;7.57;;;5.77;;
55423;SDS011;41294;42.666;23.350;2023-09-19T02:40:45;6.70;;;5.90;;
55423;SDS011;41294;42.666;23.350;2023-09-19T02:43:11;7.10;;;6.40;;
55423;SDS011;41294;42.666;23.350;2023-09-19T02:45:37;7.27;;;6.57;;
55423;SDS011;41294;42.666;23.350;2023-09-19T02:48:02;6.20;;;5.70;;
55423;SDS011;41294;42.666;23.350;2023-09-19T02:50:29;8.73;;;6.07;;
55423;SDS011;41294;42.666;23.350;2023-09-19T02:52:54;6.43;;;5.83;;
55423;SDS011;41294;42.666;23.350;2023-09-19T02:55:20;7.33;;;6.53;;
55423;SDS011;41294;42.666;23.350;2023-09-19T02:57:51;8.67;;;6.17;;
55423;SDS011;41294;42.666;23.350;2023-09-19T03:00:18;8.60;;;6.97;;
55423;SDS011;41294;42.666;23.350;2023-09-19T03:02:48;7.10;;;6.40;;
55423;SDS011;41294;42.666;23.350;2023-09-19T03:05:14;7.77;;;5.77;;
55423;SDS011;41294;42.666;23.350;2023-09-19T03:07:40;8.03;;;6.80;;
55423;SDS011;41294;42.666;23.350;2023-09-19T03:10:08;7.90;;;7.10;;
55423;SDS011;41294;42.666;23.350;2023-09-19T03:12:34;8.47;;;7.10;;
55423;SDS011;41294;42.666;23.350;2023-09-19T03:15:00;8.80;;;6.87;;
55423;SDS011;41294;42.666;23.350;2023-09-19T03:17:26;6.80;;;6.23;;
55423;SDS011;41294;42.666;23.350;2023-09-19T03:19:52;5.80;;;5.20;;
55423;SDS011;41294;42.666;23.350;2023-09-19T03:22:18;8.83;;;6.07;;
55423;SDS011;41294;42.666;23.350;2023-09-19T03:24:44;8.13;;;6.30;;
55423;SDS011;41294;42.666;23.350;2023-09-19T03:27:11;5.90;;;5.30;;
55423;SDS011;41294;42.666;23.350;2023-09-19T03:29:42;6.33;;;5.70;;
55423;SDS011;41294;42.666;23.350;2023-09-19T03:32:08;7.33;;;6.00;;
55423;SDS011;41294;42.666;23.350;2023-09-19T03:34:37;7.90;;;5.90;;
55423;SDS011;41294;42.666;23.350;2023-09-19T03:37:09;7.20;;;6.20;;
55423;SDS011;41294;42.666;23.350;2023-09-19T03:39:35;6.50;;;5.80;;
55423;SDS011;41294;42.666;23.350;2023-09-19T03:42:02;8.87;;;5.83;;
55423;SDS011;41294;42.666;23.350;2023-09-19T03:44:29;9.40;;;5.80;;
55423;SDS011;41294;42.666;23.350;2023-09-19T03:46:55;8.20;;;5.90;;
55423;SDS011;41294;42.666;23.350;2023-09-19T03:49:21;8.60;;;5.73;;
55423;SDS011;41294;42.666;23.350;2023-09-19T03:51:47;6.63;;;6.00;;
55423;SDS011;41294;42.666;23.350;2023-09-19T03:54:12;7.83;;;5.90;;
55423;SDS011;41294;42.666;23.350;2023-09-19T03:56:38;7.47;;;6.27;;
55423;SDS011;41294;42.666;23.350;2023-09-19T03:59:03;9.17;;;6.73;;
55423;SDS011;41294;42.666;23.350;2023-09-19T04:01:29;8.43;;;7.10;;
55423;SDS011;41294;42.666;23.350;2023-09-19T04:03:58;8.13;;;7.23;;
55423;SDS011;41294;42.666;23.350;2023-09-19T04:06:23;8.73;;;6.83;;
55423;SDS011;41294;42.666;23.350;2023-09-19T04:08:49;8.63;;;6.80;;
55423;SDS011;41294;42.666;23.350;2023-09-19T04:11:16;14.20;;;7.93;;
55423;SDS011;41294;42.666;23.350;2023-09-19T04:13:42;9.20;;;6.80;;
55423;SDS011;41294;42.666;23.350;2023-09-19T04:16:07;9.90;;;8.87;;
55423;SDS011;41294;42.666;23.350;2023-09-19T04:18:33;8.97;;;7.27;;
55423;SDS011;41294;42.666;23.350;2023-09-19T04:21:02;12.70;;;8.30;;
55423;SDS011;41294;42.666;23.350;2023-09-19T04:23:29;10.20;;;7.67;;
55423;SDS011;41294;42.666;23.350;2023-09-19T04:25:56;12.77;;;7.53;;
55423;SDS011;41294;42.666;23.350;2023-09-19T04:28:22;8.03;;;7.20;;
55423;SDS011;41294;42.666;23.350;2023-09-19T04:30:49;7.07;;;6.47;;
55423;SDS011;41294;42.666;23.350;2023-09-19T04:33:14;8.97;;;6.63;;
55423;SDS011;41294;42.666;23.350;2023-09-19T04:35:40;7.83;;;6.27;;
55423;SDS011;41294;42.666;23.350;2023-09-19T04:38:08;12.90;;;7.20;;
55423;SDS011;41294;42.666;23.350;2023-09-19T04:40:34;10.15;;;6.65;;
55423;SDS011;41294;42.666;23.350;2023-09-19T04:43:00;9.68;;;6.68;;
55423;SDS011;41294;42.666;23.350;2023-09-19T04:45:27;9.10;;;6.88;;
55423;SDS011;41294;42.666;23.350;2023-09-19T04:47:53;7.55;;;6.10;;
55423;SDS011;41294;42.666;23.350;2023-09-19T04:50:19;7.65;;;6.80;;
55423;SDS011;41294;42.666;23.350;2023-09-19T04:52:49;7.40;;;6.50;;
55423;SDS011;41294;42.666;23.350;2023-09-19T04:55:16;8.63;;;6.15;;
55423;SDS011;41294;42.666;23.350;2023-09-19T04:58:00;7.10;;;6.40;;
55423;SDS011;41294;42.666;23.350;2023-09-19T05:00:26;10.40;;;6.73;;
55423;SDS011;41294;42.666;23.350;2023-09-19T05:02:55;9.00;;;6.93;;
55423;SDS011;41294;42.666;23.350;2023-09-19T05:05:24;12.60;;;7.77;;
55423;SDS011;41294;42.666;23.350;2023-09-19T05:07:51;9.53;;;7.53;;
55423;SDS011;41294;42.666;23.350;2023-09-19T05:10:19;8.60;;;7.10;;
55423;SDS011;41294;42.666;23.350;2023-09-19T05:12:45;8.77;;;6.87;;
55423;SDS011;41294;42.666;23.350;2023-09-19T05:15:13;8.48;;;6.75;;
55423;SDS011;41294;42.666;23.350;2023-09-19T05:17:40;8.85;;;7.30;;
55423;SDS011;41294;42.666;23.350;2023-09-19T05:20:05;9.05;;;7.28;;
55423;SDS011;41294;42.666;23.350;2023-09-19T05:22:49;9.27;;;7.38;;
55423;SDS011;41294;42.666;23.350;2023-09-19T05:25:15;7.85;;;6.97;;
55423;SDS011;41294;42.666;23.350;2023-09-19T05:27:43;11.23;;;8.38;;
55423;SDS011;41294;42.666;23.350;2023-09-19T05:30:09;7.88;;;5.88;;
55423;SDS011;41294;42.666;23.350;2023-09-19T05:32:35;7.68;;;6.32;;
55423;SDS011;41294;42.666;23.350;2023-09-19T05:35:00;6.85;;;6.07;;
55423;SDS011;41294;42.666;23.350;2023-09-19T05:37:26;11.98;;;6.63;;
55423;SDS011;41294;42.666;23.350;2023-09-19T05:39:51;9.95;;;6.53;;
55423;SDS011;41294;42.666;23.350;2023-09-19T05:42:18;6.95;;;6.22;;
55423;SDS011;41294;42.666;23.350;2023-09-19T05:44:45;7.95;;;5.72;;
55423;SDS011;41294;42.666;23.350;2023-09-19T05:47:10;7.32;;;5.63;;
55423;SDS011;41294;42.666;23.350;2023-09-19T05:49:36;8.18;;;5.50;;
55423;SDS011;41294;42.666;23.350;2023-09-19T05:52:04;8.93;;;6.15;;
55423;SDS011;41294;42.666;23.350;2023-09-19T05:54:30;8.75;;;6.15;;
55423;SDS011;41294;42.666;23.350;2023-09-19T05:56:55;6.25;;;5.65;;
55423;SDS011;41294;42.666;23.350;2023-09-19T05:59:23;7.28;;;5.65;;
55423;SDS011;41294;42.666;23.350;2023-09-19T06:01:49;10.27;;;5.75;;
55423;SDS011;41294;42.666;23.350;2023-09-19T06:04:14;8.18;;;5.43;;
55423;SDS011;41294;42.666;23.350;2023-09-19T06:06:40;6.03;;;5.43;;
55423;SDS011;41294;42.666;23.350;2023-09-19T06:09:06;6.13;;;5.05;;
55423;SDS011;41294;42.666;23.350;2023-09-19T06:11:33;6.28;;;5.35;;
55423;SDS011;41294;42.666;23.350;2023-09-19T06:14:00;7.93;;;5.63;;
55423;SDS011;41294;42.666;23.350;2023-09-19T06:16:27;7.80;;;5.03;;
55423;SDS011;41294;42.666;23.350;2023-09-19T06:18:54;5.85;;;5.18;;
55423;SDS011;41294;42.666;23.350;2023-09-19T06:21:21;8.07;;;5.28;;
55423;SDS011;41294;42.666;23.350;2023-09-19T06:23:47;7.93;;;5.00;;
55423;SDS011;41294;42.666;23.350;2023-09-19T06:26:12;8.43;;;5.03;;
55423;SDS011;41294;42.666;23.350;2023-09-19T06:28:38;8.07;;;4.78;;
55423;SDS011;41294;42.666;23.350;2023-09-19T06:31:03;4.93;;;4.43;;
55423;SDS011;41294;42.666;23.350;2023-09-19T06:33:33;7.00;;;4.65;;
55423;SDS011;41294;42.666;23.350;2023-09-19T06:35:58;7.47;;;4.78;;
55423;SDS011;41294;42.666;23.350;2023-09-19T06:38:25;5.90;;;4.75;;
55423;SDS011;41294;42.666;23.350;2023-09-19T06:40:50;5.32;;;4.70;;
55423;SDS011;41294;42.666;23.350;2023-09-19T06:43:16;6.28;;;4.60;;
55423;SDS011;41294;42.666;23.350;2023-09-19T06:45:42;7.97;;;5.25;;
55423;SDS011;41294;42.666;23.350;2023-09-19T06:48:07;5.60;;;5.03;;
55423;SDS011;41294;42.666;23.350;2023-09-19T06:50:35;6.55;;;5.22;;
55423;SDS011;41294;42.666;23.350;2023-09-19T06:53:01;6.43;;;5.63;;
55423;SDS011;41294;42.666;23.350;2023-09-19T06:55:27;8.02;;;5.63;;
55423;SDS011;41294;42.666;23.350;2023-09-19T06:57:53;10.95;;;5.82;;
55423;SDS011;41294;42.666;23.350;2023-09-19T07:00:19;6.95;;;5.93;;
55423;SDS011;41294;42.666;23.350;2023-09-19T07:05:30;7.72;;;5.53;;
55423;SDS011;41294;42.666;23.350;2023-09-19T07:07:57;8.52;;;5.63;;
55423;SDS011;41294;42.666;23.350;2023-09-19T07:10:24;5.18;;;4.78;;
55423;SDS011;41294;42.666;23.350;2023-09-19T07:12:56;7.50;;;5.50;;
55423;SDS011;41294;42.666;23.350;2023-09-19T07:15:23;6.50;;;5.68;;
55423;SDS011;41294;42.666;23.350;2023-09-19T07:17:50;9.98;;;5.57;;
55423;SDS011;41294;42.666;23.350;2023-09-19T07:20:18;7.75;;;4.75;;
55423;SDS011;41294;42.666;23.350;2023-09-19T07:22:43;6.72;;;5.30;;
55423;SDS011;41294;42.666;23.350;2023-09-19T07:25:09;6.53;;;5.18;;
55423;SDS011;41294;42.666;23.350;2023-09-19T07:27:34;7.90;;;5.45;;
55423;SDS011;41294;42.666;23.350;2023-09-19T07:30:00;6.47;;;4.35;;
55423;SDS011;41294;42.666;23.350;2023-09-19T07:32:25;5.68;;;4.75;;
55423;SDS011;41294;42.666;23.350;2023-09-19T07:34:51;6.15;;;4.32;;
55423;SDS011;41294;42.666;23.350;2023-09-19T07:37:16;5.95;;;4.57;;
55423;SDS011;41294;42.666;23.350;2023-09-19T07:39:42;6.05;;;4.85;;
55423;SDS011;41294;42.666;23.350;2023-09-19T07:42:09;5.90;;;5.38;;
55423;SDS011;41294;42.666;23.350;2023-09-19T07:44:36;6.78;;;5.20;;
55423;SDS011;41294;42.666;23.350;2023-09-19T07:47:02;7.40;;;5.07;;
55423;SDS011;41294;42.666;23.350;2023-09-19T07:49:29;6.40;;;5.20;;
55423;SDS011;41294;42.666;23.350;2023-09-19T07:51:54;6.90;;;5.10;;
55423;SDS011;41294;42.666;23.350;2023-09-19T07:54:22;7.63;;;5.30;;
55423;SDS011;41294;42.666;23.350;2023-09-19T07:56:47;6.55;;;5.60;;
55423;SDS011;41294;42.666;23.350;2023-09-19T07:59:13;5.78;;;5.18;;
55423;SDS011;41294;42.666;23.350;2023-09-19T08:01:38;9.38;;;5.38;;
55423;SDS011;41294;42.666;23.350;2023-09-19T08:04:07;10.82;;;5.22;;
55423;SDS011;41294;42.666;23.350;2023-09-19T08:06:32;6.32;;;5.25;;
55423;SDS011;41294;42.666;23.350;2023-09-19T08:08:58;5.45;;;4.95;;
55423;SDS011;41294;42.666;23.350;2023-09-19T08:11:25;8.77;;;5.05;;
55423;SDS011;41294;42.666;23.350;2023-09-19T08:13:51;5.95;;;4.80;;
55423;SDS011;41294;42.666;23.350;2023-09-19T08:16:17;9.05;;;5.53;;
55423;SDS011;41294;42.666;23.350;2023-09-19T08:18:48;7.72;;;6.20;;
55423;SDS011;41294;42.666;23.350;2023-09-19T08:21:13;7.10;;;6.03;;
55423;SDS011;41294;42.666;23.350;2023-09-19T08:23:40;6.97;;;6.13;;
55423;SDS011;41294;42.666;23.350;2023-09-19T08:26:07;6.72;;;5.97;;
55423;SDS011;41294;42.666;23.350;2023-09-19T08:28:36;7.25;;;5.95;;
55423;SDS011;41294;42.666;23.350;2023-09-19T08:31:05;9.38;;;6.10;;
55423;SDS011;41294;42.666;23.350;2023-09-19T08:33:33;6.50;;;5.90;;
55423;SDS011;41294;42.666;23.350;2023-09-19T08:36:00;6.03;;;4.90;;
55423;SDS011;41294;42.666;23.350;2023-09-19T08:38:26;6.43;;;5.82;;
55423;SDS011;41294;42.666;23.350;2023-09-19T08:41:05;9.68;;;6.13;;
55423;SDS011;41294;42.666;23.350;2023-09-19T08:43:32;6.40;;;5.45;;
55423;SDS011;41294;42.666;23.350;2023-09-19T08:46:10;7.97;;;6.00;;
55423;SDS011;41294;42.666;23.350;2023-09-19T08:48:46;8.18;;;5.50;;
55423;SDS011;41294;42.666;23.350;2023-09-19T08:54:32;9.23;;;5.35;;
55423;SDS011;41294;42.666;23.350;2023-09-19T08:57:00;6.47;;;4.82;;
55423;SDS011;41294;42.666;23.350;2023-09-19T08:59:33;7.00;;;5.60;;
55423;SDS011;41294;42.666;23.350;2023-09-19T09:02:00;8.18;;;6.03;;
55423;SDS011;41294;42.666;23.350;2023-09-19T09:04:26;6.72;;;5.50;;
55423;SDS011;41294;42.666;23.350;2023-09-19T09:06:53;7.10;;;5.57;;
55423;SDS011;41294;42.666;23.350;2023-09-19T09:09:20;7.28;;;5.65;;
55423;SDS011;41294;42.666;23.350;2023-09-19T09:11:47;8.35;;;5.70;;
55423;SDS011;41294;42.666;23.350;2023-09-19T09:14:17;9.35;;;5.30;;
55423;SDS011;41294;42.666;23.350;2023-09-19T09:16:43;5.07;;;4.60;;
55423;SDS011;41294;42.666;23.350;2023-09-19T09:19:10;9.05;;;4.95;;
55423;SDS011;41294;42.666;23.350;2023-09-19T09:21:36;6.43;;;4.82;;
55423;SDS011;41294;42.666;23.350;2023-09-19T09:26:53;8.43;;;5.53;;
55423;SDS011;41294;42.666;23.350;2023-09-19T09:29:29;7.65;;;5.13;;
55423;SDS011;41294;42.666;23.350;2023-09-19T09:32:19;7.88;;;5.28;;
55423;SDS011;41294;42.666;23.350;2023-09-19T09:34:53;5.57;;;4.90;;
55423;SDS011;41294;42.666;23.350;2023-09-19T09:37:20;9.23;;;5.30;;
55423;SDS011;41294;42.666;23.350;2023-09-19T09:39:54;7.30;;;5.20;;
55423;SDS011;41294;42.666;23.350;2023-09-19T09:48:01;8.20;;;5.43;;
55423;SDS011;41294;42.666;23.350;2023-09-19T09:50:49;9.90;;;5.25;;
55423;SDS011;41294;42.666;23.350;2023-09-19T09:53:22;7.25;;;4.93;;
55423;SDS011;41294;42.666;23.350;2023-09-19T09:56:01;6.03;;;4.68;;
55423;SDS011;41294;42.666;23.350;2023-09-19T09:58:27;7.25;;;4.90;;
55423;SDS011;41294;42.666;23.350;2023-09-19T10:01:03;9.07;;;5.97;;
55423;SDS011;41294;42.666;23.350;2023-09-19T10:03:41;5.13;;;4.57;;
55423;SDS011;41294;42.666;23.350;2023-09-19T10:06:15;6.43;;;4.68;;
55423;SDS011;41294;42.666;23.350;2023-09-19T10:09:09;7.03;;;5.28;;
55423;SDS011;41294;42.666;23.350;2023-09-19T10:12:07;8.88;;;5.47;;
55423;SDS011;41294;42.666;23.350;2023-09-19T10:14:38;7.00;;;4.65;;
55423;SDS011;41294;42.666;23.350;2023-09-19T10:17:08;9.00;;;5.40;;
55423;SDS011;41294;42.666;23.350;2023-09-19T10:19:52;6.88;;;4.82;;
55423;SDS011;41294;42.666;23.350;2023-09-19T10:22:37;5.45;;;4.95;;
55423;SDS011;41294;42.666;23.350;2023-09-19T10:25:07;5.53;;;4.53;;
55423;SDS011;41294;42.666;23.350;2023-09-19T10:27:33;6.60;;;4.68;;
55423;SDS011;41294;42.666;23.350;2023-09-19T10:30:03;5.75;;;4.40;;
55423;SDS011;41294;42.666;23.350;2023-09-19T10:32:32;7.25;;;5.15;;
55423;SDS011;41294;42.666;23.350;2023-09-19T10:35:00;5.68;;;5.00;;
55423;SDS011;41294;42.666;23.350;2023-09-19T10:37:27;7.65;;;4.18;;
55423;SDS011;41294;42.666;23.350;2023-09-19T10:39:57;6.30;;;5.22;;
55423;SDS011;41294;42.666;23.350;2023-09-19T10:42:31;9.75;;;4.85;;
55423;SDS011;41294;42.666;23.350;2023-09-19T10:44:59;5.20;;;4.57;;
55423;SDS011;41294;42.666;23.350;2023-09-19T10:47:27;6.80;;;5.85;;
55423;SDS011;41294;42.666;23.350;2023-09-19T10:49:53;6.03;;;4.70;;
55423;SDS011;41294;42.666;23.350;2023-09-19T10:52:22;6.28;;;5.20;;
55423;SDS011;41294;42.666;23.350;2023-09-19T10:54:52;5.70;;;4.78;;
55423;SDS011;41294;42.666;23.350;2023-09-19T10:57:24;8.18;;;5.32;;
55423;SDS011;41294;42.666;23.350;2023-09-19T11:00:02;6.30;;;5.60;;
55423;SDS011;41294;42.666;23.350;2023-09-19T11:05:40;11.13;;;9.45;;
55423;SDS011;41294;42.666;23.350;2023-09-19T11:08:06;12.90;;;11.38;;
55423;SDS011;41294;42.666;23.350;2023-09-19T11:10:50;5.80;;;4.88;;
55423;SDS011;41294;42.666;23.350;2023-09-19T11:13:34;7.93;;;4.85;;
55423;SDS011;41294;42.666;23.350;2023-09-19T11:16:03;5.20;;;4.78;;
55423;SDS011;41294;42.666;23.350;2023-09-19T11:26:49;5.28;;;4.32;;
55423;SDS011;41294;42.666;23.350;2023-09-19T11:29:26;4.82;;;4.43;;
55423;SDS011;41294;42.666;23.350;2023-09-19T11:31:54;8.30;;;5.30;;
55423;SDS011;41294;42.666;23.350;2023-09-19T11:37:02;5.00;;;4.53;;
55423;SDS011;41294;42.666;23.350;2023-09-19T11:40:07;6.03;;;4.93;;
55423;SDS011;41294;42.666;23.350;2023-09-19T11:48:12;8.10;;;5.20;;
55423;SDS011;41294;42.666;23.350;2023-09-19T11:50:41;7.63;;;5.18;;
55423;SDS011;41294;42.666;23.350;2023-09-19T11:53:10;5.25;;;4.50;;
55423;SDS011;41294;42.666;23.350;2023-09-19T11:55:38;5.97;;;5.38;;
55423;SDS011;41294;42.666;23.350;2023-09-19T11:58:06;9.18;;;5.60;;
55423;SDS011;41294;42.666;23.350;2023-09-19T12:00:33;5.70;;;5.20;;
55423;SDS011;41294;42.666;23.350;2023-09-19T12:03:01;6.93;;;5.22;;
55423;SDS011;41294;42.666;23.350;2023-09-19T12:05:33;7.85;;;6.50;;
55423;SDS011;41294;42.666;23.350;2023-09-19T12:07:59;7.82;;;5.85;;
55423;SDS011;41294;42.666;23.350;2023-09-19T12:10:25;5.43;;;4.93;;
55423;SDS011;41294;42.666;23.350;2023-09-19T12:12:52;5.70;;;4.50;;
55423;SDS011;41294;42.666;23.350;2023-09-19T12:15:24;5.90;;;4.85;;
55423;SDS011;41294;42.666;23.350;2023-09-19T12:17:59;5.70;;;4.60;;
55423;SDS011;41294;42.666;23.350;2023-09-19T12:20:25;7.25;;;4.90;;
55423;SDS011;41294;42.666;23.350;2023-09-19T12:23:12;8.18;;;5.00;;
55423;SDS011;41294;42.666;23.350;2023-09-19T12:25:42;6.22;;;5.00;;
55423;SDS011;41294;42.666;23.350;2023-09-19T12:28:12;5.32;;;4.75;;
55423;SDS011;41294;42.666;23.350;2023-09-19T12:30:42;6.15;;;5.10;;
55423;SDS011;41294;42.666;23.350;2023-09-19T12:33:21;5.35;;;4.85;;
55423;SDS011;41294;42.666;23.350;2023-09-19T12:35:51;5.53;;;4.88;;
55423;SDS011;41294;42.666;23.350;2023-09-19T12:38:27;6.93;;;4.80;;
55423;SDS011;41294;42.666;23.350;2023-09-19T12:40:55;6.55;;;5.10;;
55423;SDS011;41294;42.666;23.350;2023-09-19T12:43:23;8.13;;;4.80;;
55423;SDS011;41294;42.666;23.350;2023-09-19T12:45:49;5.07;;;4.57;;
55423;SDS011;41294;42.666;23.350;2023-09-19T12:48:25;6.20;;;5.15;;
55423;SDS011;41294;42.666;23.350;2023-09-19T12:50:59;7.20;;;6.53;;
55423;SDS011;41294;42.666;23.350;2023-09-19T12:53:36;7.40;;;6.70;;
55423;SDS011;41294;42.666;23.350;2023-09-19T12:56:05;7.57;;;6.82;;
55423;SDS011;41294;42.666;23.350;2023-09-19T12:58:34;5.40;;;4.90;;
55423;SDS011;41294;42.666;23.350;2023-09-19T13:01:00;6.35;;;4.90;;
55423;SDS011;41294;42.666;23.350;2023-09-19T13:03:30;7.80;;;5.50;;
55423;SDS011;41294;42.666;23.350;2023-09-19T13:06:01;9.77;;;5.25;;
55423;SDS011;41294;42.666;23.350;2023-09-19T13:08:38;7.38;;;5.53;;
55423;SDS011;41294;42.666;23.350;2023-09-19T13:11:10;5.88;;;5.28;;
55423;SDS011;41294;42.666;23.350;2023-09-19T13:16:26;5.10;;;4.70;;
55423;SDS011;41294;42.666;23.350;2023-09-19T13:18:55;6.38;;;5.13;;
55423;SDS011;41294;42.666;23.350;2023-09-19T13:21:27;4.93;;;4.53;;
55423;SDS011;41294;42.666;23.350;2023-09-19T13:23:54;6.13;;;4.95;;
55423;SDS011;41294;42.666;23.350;2023-09-19T13:26:27;6.32;;;4.60;;
55423;SDS011;41294;42.666;23.350;2023-09-19T13:28:53;5.38;;;4.75;;
55423;SDS011;41294;42.666;23.350;2023-09-19T13:31:19;5.63;;;4.95;;
55423;SDS011;41294;42.666;23.350;2023-09-19T13:33:46;4.88;;;4.47;;
55423;SDS011;41294;42.666;23.350;2023-09-19T13:36:13;5.32;;;4.82;;
55423;SDS011;41294;42.666;23.350;2023-09-19T13:38:39;5.72;;;5.15;;
55423;SDS011;41294;42.666;23.350;2023-09-19T13:41:09;5.50;;;5.00;;
55423;SDS011;41294;42.666;23.350;2023-09-19T13:43:38;8.13;;;5.88;;
55423;SDS011;41294;42.666;23.350;2023-09-19T13:46:05;5.43;;;4.47;;
55423;SDS011;41294;42.666;23.350;2023-09-19T13:48:40;8.80;;;7.88;;
55423;SDS011;41294;42.666;23.350;2023-09-19T13:51:05;6.80;;;5.00;;
55423;SDS011;41294;42.666;23.350;2023-09-19T13:53:31;8.48;;;5.38;;
55423;SDS011;41294;42.666;23.350;2023-09-19T13:55:56;6.07;;;5.22;;
55423;SDS011;41294;42.666;23.350;2023-09-19T13:58:22;8.13;;;5.07;;
55423;SDS011;41294;42.666;23.350;2023-09-19T14:00:50;5.82;;;5.18;;
55423;SDS011;41294;42.666;23.350;2023-09-19T14:03:16;6.05;;;5.10;;
55423;SDS011;41294;42.666;23.350;2023-09-19T14:05:41;5.55;;;5.05;;
55423;SDS011;41294;42.666;23.350;2023-09-19T14:08:08;6.63;;;5.53;;
55423;SDS011;41294;42.666;23.350;2023-09-19T14:10:33;5.03;;;4.63;;
55423;SDS011;41294;42.666;23.350;2023-09-19T14:13:00;5.70;;;5.20;;
55423;SDS011;41294;42.666;23.350;2023-09-19T14:15:26;7.03;;;5.03;;
55423;SDS011;41294;42.666;23.350;2023-09-19T14:17:58;6.22;;;5.40;;
55423;SDS011;41294;42.666;23.350;2023-09-19T14:20:25;6.47;;;4.72;;
55423;SDS011;41294;42.666;23.350;2023-09-19T14:22:52;7.45;;;4.90;;
55423;SDS011;41294;42.666;23.350;2023-09-19T14:25:18;6.22;;;4.93;;
55423;SDS011;41294;42.666;23.350;2023-09-19T14:27:44;6.00;;;5.57;;
55423;SDS011;41294;42.666;23.350;2023-09-19T14:30:10;13.90;;;5.55;;
55423;SDS011;41294;42.666;23.350;2023-09-19T14:32:37;6.13;;;5.40;;
55423;SDS011;41294;42.666;23.350;2023-09-19T14:35:04;5.55;;;5.00;;
55423;SDS011;41294;42.666;23.350;2023-09-19T14:37:30;7.60;;;6.00;;
55423;SDS011;41294;42.666;23.350;2023-09-19T14:39:56;5.88;;;5.38;;
55423;SDS011;41294;42.666;23.350;2023-09-19T14:42:21;6.47;;;4.97;;
55423;SDS011;41294;42.666;23.350;2023-09-19T14:44:48;7.68;;;5.22;;
55423;SDS011;41294;42.666;23.350;2023-09-19T14:47:14;6.22;;;5.63;;
55423;SDS011;41294;42.666;23.350;2023-09-19T14:49:44;6.70;;;5.22;;
55423;SDS011;41294;42.666;23.350;2023-09-19T14:52:11;6.53;;;5.70;;
55423;SDS011;41294;42.666;23.350;2023-09-19T14:54:37;6.40;;;5.80;;
55423;SDS011;41294;42.666;23.350;2023-09-19T14:57:07;7.80;;;5.45;;
55423;SDS011;41294;42.666;23.350;2023-09-19T14:59:34;5.20;;;4.70;;
55423;SDS011;41294;42.666;23.350;2023-09-19T15:02:03;7.38;;;5.75;;
55423;SDS011;41294;42.666;23.350;2023-09-19T15:04:29;6.35;;;5.07;;
55423;SDS011;41294;42.666;23.350;2023-09-19T15:06:55;5.75;;;5.15;;
55423;SDS011;41294;42.666;23.350;2023-09-19T15:09:23;5.82;;;5.22;;
55423;SDS011;41294;42.666;23.350;2023-09-19T15:11:55;6.05;;;5.47;;
55423;SDS011;41294;42.666;23.350;2023-09-19T15:14:28;5.82;;;5.10;;
55423;SDS011;41294;42.666;23.350;2023-09-19T15:19:29;10.77;;;5.32;;
55423;SDS011;41294;42.666;23.350;2023-09-19T15:21:57;5.57;;;5.07;;
55423;SDS011;41294;42.666;23.350;2023-09-19T15:24:23;5.63;;;5.20;;
55423;SDS011;41294;42.666;23.350;2023-09-19T15:26:50;6.22;;;5.40;;
55423;SDS011;41294;42.666;23.350;2023-09-19T15:29:16;7.43;;;5.03;;
55423;SDS011;41294;42.666;23.350;2023-09-19T15:31:43;6.80;;;6.18;;
55423;SDS011;41294;42.666;23.350;2023-09-19T15:34:08;6.15;;;5.47;;
55423;SDS011;41294;42.666;23.350;2023-09-19T15:36:39;6.75;;;5.43;;
55423;SDS011;41294;42.666;23.350;2023-09-19T15:39:08;7.28;;;5.43;;
55423;SDS011;41294;42.666;23.350;2023-09-19T15:41:41;6.65;;;5.45;;
55423;SDS011;41294;42.666;23.350;2023-09-19T15:44:11;6.43;;;5.10;;